sensor_id;sensor_type;location;lat;lon;timestamp;temperature;humidity
680;DHT22;322;48.846;9.230;2022-08-19T00:00:49;21.20;99.90
680;DHT22;322;48.846;9.230;2022-08-19T00:03:16;21.30;99.90
680;DHT22;322;48.846;9.230;2022-08-19T00:05:43;21.30;99.90
680;DHT22;322;48.846;9.230;2022-08-19T00:08:11;21.20;99.90
680;DHT22;322;48.846;9.230;2022-08-19T00:10:39;21.20;99.90
680;DHT22;322;48.846;9.230;2022-08-19T00:13:06;21.20;99.90
680;DHT22;322;48.846;9.230;2022-08-19T00:15:32;21.20;99.90
680;DHT22;322;48.846;9.230;2022-08-19T00:17:59;21.20;99.90
680;DHT22;322;48.846;9.230;2022-08-19T00:20:26;21.20;99.90
680;DHT22;322;48.846;9.230;2022-08-19T00:22:53;21.20;99.90
680;DHT22;322;48.846;9.230;2022-08-19T00:25:21;21.20;99.90
680;DHT22;322;48.846;9.230;2022-08-19T00:27:49;21.20;99.90
680;DHT22;322;48.846;9.230;2022-08-19T00:30:16;21.20;99.90
680;DHT22;322;48.846;9.230;2022-08-19T00:32:43;21.10;99.90
680;DHT22;322;48.846;9.230;2022-08-19T00:35:10;21.20;99.90
680;DHT22;322;48.846;9.230;2022-08-19T00:37:38;21.10;99.90
680;DHT22;322;48.846;9.230;2022-08-19T00:40:09;21.10;99.90
680;DHT22;322;48.846;9.230;2022-08-19T00:42:36;21.20;99.90
680;DHT22;322;48.846;9.230;2022-08-19T00:45:10;21.10;99.90
680;DHT22;322;48.846;9.230;2022-08-19T00:47:37;21.10;99.90
680;DHT22;322;48.846;9.230;2022-08-19T00:50:05;21.10;99.90
680;DHT22;322;48.846;9.230;2022-08-19T00:52:36;21.10;99.90
680;DHT22;322;48.846;9.230;2022-08-19T00:55:06;21.10;99.90
680;DHT22;322;48.846;9.230;2022-08-19T00:57:38;21.20;99.90
680;DHT22;322;48.846;9.230;2022-08-19T01:00:12;21.20;99.90
680;DHT22;322;48.846;9.230;2022-08-19T01:02:40;21.20;99.90
680;DHT22;322;48.846;9.230;2022-08-19T01:05:10;21.20;99.90
680;DHT22;322;48.846;9.230;2022-08-19T01:07:39;21.20;99.90
680;DHT22;322;48.846;9.230;2022-08-19T01:10:09;21.20;99.90
680;DHT22;322;48.846;9.230;2022-08-19T01:12:37;21.10;99.90
680;DHT22;322;48.846;9.230;2022-08-19T01:15:05;21.10;99.90
680;DHT22;322;48.846;9.230;2022-08-19T01:17:35;21.10;99.90
680;DHT22;322;48.846;9.230;2022-08-19T01:20:03;21.10;99.90
680;DHT22;322;48.846;9.230;2022-08-19T01:22:34;21.10;99.90
680;DHT22;322;48.846;9.230;2022-08-19T01:25:05;21.10;99.90
680;DHT22;322;48.846;9.230;2022-08-19T01:27:38;21.10;99.90
680;DHT22;322;48.846;9.230;2022-08-19T01:30:06;21.10;99.90
680;DHT22;322;48.846;9.230;2022-08-19T01:32:34;21.10;99.90
680;DHT22;322;48.846;9.230;2022-08-19T01:35:01;21.00;99.90
680;DHT22;322;48.846;9.230;2022-08-19T01:37:30;21.00;99.90
680;DHT22;322;48.846;9.230;2022-08-19T01:39:58;21.00;99.90
680;DHT22;322;48.846;9.230;2022-08-19T01:42:24;21.00;99.90
680;DHT22;322;48.846;9.230;2022-08-19T01:44:51;21.00;99.90
680;DHT22;322;48.846;9.230;2022-08-19T01:47:18;21.00;99.90
680;DHT22;322;48.846;9.230;2022-08-19T01:49:45;21.00;99.90
680;DHT22;322;48.846;9.230;2022-08-19T01:52:12;21.00;99.90
680;DHT22;322;48.846;9.230;2022-08-19T01:54:38;21.00;99.90
680;DHT22;322;48.846;9.230;2022-08-19T01:57:09;21.00;99.90
680;DHT22;322;48.846;9.230;2022-08-19T01:59:37;20.90;99.90
680;DHT22;322;48.846;9.230;2022-08-19T02:02:05;20.90;99.90
680;DHT22;322;48.846;9.230;2022-08-19T02:04:32;20.90;99.90
680;DHT22;322;48.846;9.230;2022-08-19T02:07:00;20.90;99.90
680;DHT22;322;48.846;9.230;2022-08-19T02:09:27;20.80;99.90
680;DHT22;322;48.846;9.230;2022-08-19T02:11:53;20.80;99.90
680;DHT22;322;48.846;9.230;2022-08-19T02:14:21;20.80;99.90
680;DHT22;322;48.846;9.230;2022-08-19T02:16:48;20.80;99.90
680;DHT22;322;48.846;9.230;2022-08-19T02:19:15;20.80;99.90
680;DHT22;322;48.846;9.230;2022-08-19T02:21:42;20.80;99.90
680;DHT22;322;48.846;9.230;2022-08-19T02:24:09;20.80;99.90
680;DHT22;322;48.846;9.230;2022-08-19T02:26:37;20.80;99.90
680;DHT22;322;48.846;9.230;2022-08-19T02:29:04;20.70;99.90
680;DHT22;322;48.846;9.230;2022-08-19T02:31:32;20.70;99.90
680;DHT22;322;48.846;9.230;2022-08-19T02:34:00;20.70;99.90
680;DHT22;322;48.846;9.230;2022-08-19T02:36:27;20.70;99.90
680;DHT22;322;48.846;9.230;2022-08-19T02:38:54;20.70;99.90
680;DHT22;322;48.846;9.230;2022-08-19T02:41:22;20.70;99.90
680;DHT22;322;48.846;9.230;2022-08-19T02:43:49;20.60;99.90
680;DHT22;322;48.846;9.230;2022-08-19T02:46:18;20.60;99.90
680;DHT22;322;48.846;9.230;2022-08-19T02:48:48;20.60;99.90
680;DHT22;322;48.846;9.230;2022-08-19T02:51:19;20.60;99.90
680;DHT22;322;48.846;9.230;2022-08-19T02:53:46;20.60;99.90
680;DHT22;322;48.846;9.230;2022-08-19T02:56:13;20.50;99.90
680;DHT22;322;48.846;9.230;2022-08-19T02:58:41;20.50;99.90
680;DHT22;322;48.846;9.230;2022-08-19T03:01:08;20.40;99.90
680;DHT22;322;48.846;9.230;2022-08-19T03:03:36;20.40;99.90
680;DHT22;322;48.846;9.230;2022-08-19T03:06:06;20.40;99.90
680;DHT22;322;48.846;9.230;2022-08-19T03:08:33;20.40;99.90
680;DHT22;322;48.846;9.230;2022-08-19T03:11:00;20.30;99.90
680;DHT22;322;48.846;9.230;2022-08-19T03:13:27;20.30;99.90
680;DHT22;322;48.846;9.230;2022-08-19T03:15:54;20.30;99.90
680;DHT22;322;48.846;9.230;2022-08-19T03:18:21;20.30;99.90
680;DHT22;322;48.846;9.230;2022-08-19T03:20:49;20.20;99.90
680;DHT22;322;48.846;9.230;2022-08-19T03:23:19;20.30;99.90
680;DHT22;322;48.846;9.230;2022-08-19T03:25:48;20.30;99.90
680;DHT22;322;48.846;9.230;2022-08-19T03:28:15;20.20;99.90
680;DHT22;322;48.846;9.230;2022-08-19T03:30:54;20.30;99.90
680;DHT22;322;48.846;9.230;2022-08-19T03:33:22;20.30;99.90
680;DHT22;322;48.846;9.230;2022-08-19T03:36:00;20.30;99.90
680;DHT22;322;48.846;9.230;2022-08-19T03:38:29;20.30;99.90
680;DHT22;322;48.846;9.230;2022-08-19T03:40:56;20.20;99.90
680;DHT22;322;48.846;9.230;2022-08-19T03:43:23;20.20;99.90
680;DHT22;322;48.846;9.230;2022-08-19T03:45:59;20.20;99.90
680;DHT22;322;48.846;9.230;2022-08-19T03:48:28;20.20;99.90
680;DHT22;322;48.846;9.230;2022-08-19T03:50:55;20.20;99.90
680;DHT22;322;48.846;9.230;2022-08-19T03:53:24;20.20;99.90
680;DHT22;322;48.846;9.230;2022-08-19T03:55:53;20.20;99.90
680;DHT22;322;48.846;9.230;2022-08-19T03:58:20;20.20;99.90
680;DHT22;322;48.846;9.230;2022-08-19T04:00:48;20.10;99.90
680;DHT22;322;48.846;9.230;2022-08-19T04:03:15;20.10;99.90
680;DHT22;322;48.846;9.230;2022-08-19T04:05:44;20.10;99.90
680;DHT22;322;48.846;9.230;2022-08-19T04:08:11;20.10;99.90
680;DHT22;322;48.846;9.230;2022-08-19T04:10:38;20.10;99.90
680;DHT22;322;48.846;9.230;2022-08-19T04:13:07;20.00;99.90
680;DHT22;322;48.846;9.230;2022-08-19T04:15:39;20.10;99.90
680;DHT22;322;48.846;9.230;2022-08-19T04:18:07;20.10;99.90
680;DHT22;322;48.846;9.230;2022-08-19T04:20:39;20.10;99.90
680;DHT22;322;48.846;9.230;2022-08-19T04:23:05;20.10;99.90
680;DHT22;322;48.846;9.230;2022-08-19T04:25:36;20.10;99.90
680;DHT22;322;48.846;9.230;2022-08-19T04:28:03;20.10;99.90
680;DHT22;322;48.846;9.230;2022-08-19T04:30:37;20.10;99.90
680;DHT22;322;48.846;9.230;2022-08-19T04:35:35;20.10;99.90
680;DHT22;322;48.846;9.230;2022-08-19T04:38:02;20.00;99.90
680;DHT22;322;48.846;9.230;2022-08-19T04:40:29;20.00;99.90
680;DHT22;322;48.846;9.230;2022-08-19T04:43:13;20.00;99.90
680;DHT22;322;48.846;9.230;2022-08-19T04:45:42;20.10;99.90
680;DHT22;322;48.846;9.230;2022-08-19T04:48:10;20.10;99.90
680;DHT22;322;48.846;9.230;2022-08-19T04:50:40;20.00;99.90
680;DHT22;322;48.846;9.230;2022-08-19T04:53:08;20.00;99.90
680;DHT22;322;48.846;9.230;2022-08-19T04:55:39;20.00;99.90
680;DHT22;322;48.846;9.230;2022-08-19T04:58:06;20.00;99.90
680;DHT22;322;48.846;9.230;2022-08-19T05:00:33;20.00;99.90
680;DHT22;322;48.846;9.230;2022-08-19T05:03:01;20.00;99.90
680;DHT22;322;48.846;9.230;2022-08-19T05:05:28;20.00;99.90
680;DHT22;322;48.846;9.230;2022-08-19T05:07:57;20.00;99.90
680;DHT22;322;48.846;9.230;2022-08-19T05:10:23;20.00;99.90
680;DHT22;322;48.846;9.230;2022-08-19T05:12:50;20.10;99.90
680;DHT22;322;48.846;9.230;2022-08-19T05:15:17;20.10;99.90
680;DHT22;322;48.846;9.230;2022-08-19T05:17:44;20.00;99.90
680;DHT22;322;48.846;9.230;2022-08-19T05:20:32;20.00;99.90
680;DHT22;322;48.846;9.230;2022-08-19T05:23:16;20.00;99.90
680;DHT22;322;48.846;9.230;2022-08-19T05:25:43;20.10;99.90
680;DHT22;322;48.846;9.230;2022-08-19T05:28:10;20.10;99.90
680;DHT22;322;48.846;9.230;2022-08-19T05:30:37;20.10;99.90
680;DHT22;322;48.846;9.230;2022-08-19T05:33:03;20.20;99.90
680;DHT22;322;48.846;9.230;2022-08-19T05:35:31;20.20;99.90
680;DHT22;322;48.846;9.230;2022-08-19T05:37:58;20.20;99.90
680;DHT22;322;48.846;9.230;2022-08-19T05:40:25;20.20;99.90
680;DHT22;322;48.846;9.230;2022-08-19T05:42:52;20.20;99.90
680;DHT22;322;48.846;9.230;2022-08-19T05:45:19;20.20;99.90
680;DHT22;322;48.846;9.230;2022-08-19T05:47:47;20.20;99.90
680;DHT22;322;48.846;9.230;2022-08-19T05:50:14;20.20;99.90
680;DHT22;322;48.846;9.230;2022-08-19T05:52:44;20.20;99.90
680;DHT22;322;48.846;9.230;2022-08-19T05:55:11;20.20;99.90
680;DHT22;322;48.846;9.230;2022-08-19T05:57:38;20.20;99.90
680;DHT22;322;48.846;9.230;2022-08-19T06:00:06;20.20;99.90
680;DHT22;322;48.846;9.230;2022-08-19T06:02:35;20.20;99.90
680;DHT22;322;48.846;9.230;2022-08-19T06:05:03;20.20;99.90
680;DHT22;322;48.846;9.230;2022-08-19T06:07:31;20.20;99.90
680;DHT22;322;48.846;9.230;2022-08-19T06:09:59;20.30;99.90
680;DHT22;322;48.846;9.230;2022-08-19T06:12:26;20.30;99.90
680;DHT22;322;48.846;9.230;2022-08-19T06:14:58;20.30;99.90
680;DHT22;322;48.846;9.230;2022-08-19T06:17:25;20.30;99.90
680;DHT22;322;48.846;9.230;2022-08-19T06:19:52;20.30;99.90
680;DHT22;322;48.846;9.230;2022-08-19T06:22:19;20.30;99.90
680;DHT22;322;48.846;9.230;2022-08-19T06:24:46;20.40;99.90
680;DHT22;322;48.846;9.230;2022-08-19T06:27:14;20.30;99.90
680;DHT22;322;48.846;9.230;2022-08-19T06:29:41;20.30;99.90
680;DHT22;322;48.846;9.230;2022-08-19T06:32:08;20.30;99.90
680;DHT22;322;48.846;9.230;2022-08-19T06:34:36;20.20;99.90
680;DHT22;322;48.846;9.230;2022-08-19T06:37:03;20.20;99.90
680;DHT22;322;48.846;9.230;2022-08-19T06:39:34;20.10;99.90
680;DHT22;322;48.846;9.230;2022-08-19T06:42:03;20.10;99.90
680;DHT22;322;48.846;9.230;2022-08-19T06:44:34;20.00;99.90
680;DHT22;322;48.846;9.230;2022-08-19T06:47:03;19.90;99.90
680;DHT22;322;48.846;9.230;2022-08-19T06:49:30;20.00;99.90
680;DHT22;322;48.846;9.230;2022-08-19T06:51:57;20.00;99.90
680;DHT22;322;48.846;9.230;2022-08-19T06:54:25;20.10;99.90
680;DHT22;322;48.846;9.230;2022-08-19T06:56:52;20.10;99.90
680;DHT22;322;48.846;9.230;2022-08-19T06:59:21;20.10;99.90
680;DHT22;322;48.846;9.230;2022-08-19T07:01:55;20.10;99.90
680;DHT22;322;48.846;9.230;2022-08-19T07:04:24;20.10;99.90
680;DHT22;322;48.846;9.230;2022-08-19T07:06:57;20.10;99.90
680;DHT22;322;48.846;9.230;2022-08-19T07:09:24;20.20;99.90
680;DHT22;322;48.846;9.230;2022-08-19T07:11:52;20.30;99.90
680;DHT22;322;48.846;9.230;2022-08-19T07:14:26;20.30;99.90
680;DHT22;322;48.846;9.230;2022-08-19T07:16:56;20.40;99.90
680;DHT22;322;48.846;9.230;2022-08-19T07:19:24;20.50;99.90
680;DHT22;322;48.846;9.230;2022-08-19T07:21:53;20.60;99.90
680;DHT22;322;48.846;9.230;2022-08-19T07:24:21;20.70;99.90
680;DHT22;322;48.846;9.230;2022-08-19T07:26:50;20.70;99.90
680;DHT22;322;48.846;9.230;2022-08-19T07:29:18;20.70;99.90
680;DHT22;322;48.846;9.230;2022-08-19T07:31:48;20.70;99.90
680;DHT22;322;48.846;9.230;2022-08-19T07:34:17;20.70;99.90
680;DHT22;322;48.846;9.230;2022-08-19T07:36:45;20.70;99.90
680;DHT22;322;48.846;9.230;2022-08-19T07:39:15;20.70;99.90
680;DHT22;322;48.846;9.230;2022-08-19T07:41:42;20.80;99.90
680;DHT22;322;48.846;9.230;2022-08-19T07:44:10;20.70;99.90
680;DHT22;322;48.846;9.230;2022-08-19T07:46:40;20.70;99.90
680;DHT22;322;48.846;9.230;2022-08-19T07:49:08;20.70;99.90
680;DHT22;322;48.846;9.230;2022-08-19T07:51:45;20.70;99.90
680;DHT22;322;48.846;9.230;2022-08-19T07:54:12;20.50;99.90
680;DHT22;322;48.846;9.230;2022-08-19T07:56:39;20.40;99.90
680;DHT22;322;48.846;9.230;2022-08-19T07:59:06;20.40;99.90
680;DHT22;322;48.846;9.230;2022-08-19T08:01:33;20.30;99.90
680;DHT22;322;48.846;9.230;2022-08-19T08:04:00;20.20;99.90
680;DHT22;322;48.846;9.230;2022-08-19T08:06:46;20.00;99.90
680;DHT22;322;48.846;9.230;2022-08-19T08:09:32;19.90;99.90
680;DHT22;322;48.846;9.230;2022-08-19T08:12:03;19.80;99.90
680;DHT22;322;48.846;9.230;2022-08-19T08:14:33;19.80;99.90
680;DHT22;322;48.846;9.230;2022-08-19T08:17:01;19.70;99.90
680;DHT22;322;48.846;9.230;2022-08-19T08:19:28;19.70;99.90
680;DHT22;322;48.846;9.230;2022-08-19T08:21:59;19.60;99.90
680;DHT22;322;48.846;9.230;2022-08-19T08:24:27;19.70;99.90
680;DHT22;322;48.846;9.230;2022-08-19T08:26:57;19.60;99.90
680;DHT22;322;48.846;9.230;2022-08-19T08:29:24;19.50;99.90
680;DHT22;322;48.846;9.230;2022-08-19T08:31:51;19.40;99.90
680;DHT22;322;48.846;9.230;2022-08-19T08:34:19;19.40;99.90
680;DHT22;322;48.846;9.230;2022-08-19T08:36:47;19.40;99.90
680;DHT22;322;48.846;9.230;2022-08-19T08:39:16;19.40;99.90
680;DHT22;322;48.846;9.230;2022-08-19T08:41:48;19.40;99.90
680;DHT22;322;48.846;9.230;2022-08-19T08:44:22;19.50;99.90
680;DHT22;322;48.846;9.230;2022-08-19T08:46:52;19.50;99.90
680;DHT22;322;48.846;9.230;2022-08-19T08:49:28;19.60;99.90
680;DHT22;322;48.846;9.230;2022-08-19T08:52:00;19.90;99.90
680;DHT22;322;48.846;9.230;2022-08-19T08:54:34;20.10;99.90
680;DHT22;322;48.846;9.230;2022-08-19T08:57:04;20.30;99.90
680;DHT22;322;48.846;9.230;2022-08-19T08:59:36;20.70;99.90
680;DHT22;322;48.846;9.230;2022-08-19T09:02:04;21.00;99.90
680;DHT22;322;48.846;9.230;2022-08-19T09:04:30;21.30;99.90
680;DHT22;322;48.846;9.230;2022-08-19T09:07:06;21.50;99.90
680;DHT22;322;48.846;9.230;2022-08-19T09:09:39;21.60;99.90
680;DHT22;322;48.846;9.230;2022-08-19T09:12:12;21.60;99.90
680;DHT22;322;48.846;9.230;2022-08-19T09:14:51;21.60;99.90
680;DHT22;322;48.846;9.230;2022-08-19T09:17:20;21.70;99.90
680;DHT22;322;48.846;9.230;2022-08-19T09:19:55;21.70;99.90
680;DHT22;322;48.846;9.230;2022-08-19T09:22:22;21.70;99.90
680;DHT22;322;48.846;9.230;2022-08-19T09:24:51;21.70;99.90
680;DHT22;322;48.846;9.230;2022-08-19T09:27:19;21.60;99.90
680;DHT22;322;48.846;9.230;2022-08-19T09:29:46;21.60;99.90
680;DHT22;322;48.846;9.230;2022-08-19T09:32:13;21.70;99.90
680;DHT22;322;48.846;9.230;2022-08-19T09:34:40;21.70;99.90
680;DHT22;322;48.846;9.230;2022-08-19T09:37:09;21.70;99.90
680;DHT22;322;48.846;9.230;2022-08-19T09:39:36;21.80;99.90
680;DHT22;322;48.846;9.230;2022-08-19T09:42:05;21.80;99.90
680;DHT22;322;48.846;9.230;2022-08-19T09:44:37;21.70;99.90
680;DHT22;322;48.846;9.230;2022-08-19T09:47:04;21.80;99.90
680;DHT22;322;48.846;9.230;2022-08-19T09:49:31;21.80;99.90
680;DHT22;322;48.846;9.230;2022-08-19T09:51:58;21.80;99.90
680;DHT22;322;48.846;9.230;2022-08-19T09:54:25;21.80;99.90
680;DHT22;322;48.846;9.230;2022-08-19T09:56:52;21.80;99.90
680;DHT22;322;48.846;9.230;2022-08-19T09:59:21;21.80;99.90
680;DHT22;322;48.846;9.230;2022-08-19T10:01:48;21.80;99.90
680;DHT22;322;48.846;9.230;2022-08-19T10:04:15;21.80;99.90
680;DHT22;322;48.846;9.230;2022-08-19T10:06:41;21.90;99.90
680;DHT22;322;48.846;9.230;2022-08-19T10:09:09;21.90;99.90
680;DHT22;322;48.846;9.230;2022-08-19T10:11:39;22.00;99.90
680;DHT22;322;48.846;9.230;2022-08-19T10:14:06;22.10;99.90
680;DHT22;322;48.846;9.230;2022-08-19T10:16:36;22.20;99.90
680;DHT22;322;48.846;9.230;2022-08-19T10:19:04;22.30;99.90
680;DHT22;322;48.846;9.230;2022-08-19T10:21:32;22.40;99.90
680;DHT22;322;48.846;9.230;2022-08-19T10:24:02;22.50;99.90
680;DHT22;322;48.846;9.230;2022-08-19T10:26:33;22.50;99.90
680;DHT22;322;48.846;9.230;2022-08-19T10:29:00;22.60;99.90
680;DHT22;322;48.846;9.230;2022-08-19T10:31:29;22.60;99.90
680;DHT22;322;48.846;9.230;2022-08-19T10:34:00;22.60;99.90
680;DHT22;322;48.846;9.230;2022-08-19T10:36:30;22.60;99.90
680;DHT22;322;48.846;9.230;2022-08-19T10:38:59;22.60;99.90
680;DHT22;322;48.846;9.230;2022-08-19T10:41:30;22.60;99.90
680;DHT22;322;48.846;9.230;2022-08-19T10:44:00;22.70;99.90
680;DHT22;322;48.846;9.230;2022-08-19T10:46:28;22.60;99.90
680;DHT22;322;48.846;9.230;2022-08-19T10:48:59;22.50;99.90
680;DHT22;322;48.846;9.230;2022-08-19T10:51:26;22.30;99.90
680;DHT22;322;48.846;9.230;2022-08-19T10:54:10;22.30;99.90
680;DHT22;322;48.846;9.230;2022-08-19T10:56:37;22.40;99.90
680;DHT22;322;48.846;9.230;2022-08-19T10:59:20;22.40;99.90
680;DHT22;322;48.846;9.230;2022-08-19T11:01:48;22.50;99.90
680;DHT22;322;48.846;9.230;2022-08-19T11:04:18;22.60;99.90
680;DHT22;322;48.846;9.230;2022-08-19T11:06:46;22.70;99.90
680;DHT22;322;48.846;9.230;2022-08-19T11:09:14;22.90;99.90
680;DHT22;322;48.846;9.230;2022-08-19T11:11:41;23.20;99.90
680;DHT22;322;48.846;9.230;2022-08-19T11:14:08;23.40;99.90
680;DHT22;322;48.846;9.230;2022-08-19T11:16:36;23.60;99.90
680;DHT22;322;48.846;9.230;2022-08-19T11:19:04;23.80;99.90
680;DHT22;322;48.846;9.230;2022-08-19T11:21:35;23.90;99.90
680;DHT22;322;48.846;9.230;2022-08-19T11:24:05;24.20;99.90
680;DHT22;322;48.846;9.230;2022-08-19T11:26:33;24.20;99.90
680;DHT22;322;48.846;9.230;2022-08-19T11:29:00;24.20;99.90
680;DHT22;322;48.846;9.230;2022-08-19T11:31:32;24.30;99.90
680;DHT22;322;48.846;9.230;2022-08-19T11:34:01;24.40;99.90
680;DHT22;322;48.846;9.230;2022-08-19T11:36:29;24.20;99.90
680;DHT22;322;48.846;9.230;2022-08-19T11:38:59;24.00;99.90
680;DHT22;322;48.846;9.230;2022-08-19T11:41:26;23.90;99.90
680;DHT22;322;48.846;9.230;2022-08-19T11:43:54;23.80;99.90
680;DHT22;322;48.846;9.230;2022-08-19T11:46:22;23.80;99.90
680;DHT22;322;48.846;9.230;2022-08-19T11:48:50;23.70;99.90
680;DHT22;322;48.846;9.230;2022-08-19T11:51:19;23.70;99.90
680;DHT22;322;48.846;9.230;2022-08-19T11:53:47;23.50;99.90
680;DHT22;322;48.846;9.230;2022-08-19T11:56:17;23.10;99.90
680;DHT22;322;48.846;9.230;2022-08-19T11:58:44;22.70;99.90
680;DHT22;322;48.846;9.230;2022-08-19T12:01:14;22.50;99.90
680;DHT22;322;48.846;9.230;2022-08-19T12:03:41;22.30;99.90
680;DHT22;322;48.846;9.230;2022-08-19T12:06:12;22.30;99.90
680;DHT22;322;48.846;9.230;2022-08-19T12:08:39;22.30;99.90
680;DHT22;322;48.846;9.230;2022-08-19T12:11:06;22.40;99.90
680;DHT22;322;48.846;9.230;2022-08-19T12:13:35;22.40;99.90
680;DHT22;322;48.846;9.230;2022-08-19T12:16:07;22.50;99.90
680;DHT22;322;48.846;9.230;2022-08-19T12:18:35;22.60;99.90
680;DHT22;322;48.846;9.230;2022-08-19T12:21:01;22.70;99.90
680;DHT22;322;48.846;9.230;2022-08-19T12:23:29;22.80;99.90
680;DHT22;322;48.846;9.230;2022-08-19T12:25:56;22.90;99.90
680;DHT22;322;48.846;9.230;2022-08-19T12:28:24;23.20;99.90
680;DHT22;322;48.846;9.230;2022-08-19T12:30:52;23.40;99.90
680;DHT22;322;48.846;9.230;2022-08-19T12:33:19;23.70;99.90
680;DHT22;322;48.846;9.230;2022-08-19T12:35:51;24.00;99.90
680;DHT22;322;48.846;9.230;2022-08-19T12:38:18;24.30;99.90
680;DHT22;322;48.846;9.230;2022-08-19T12:40:46;24.60;99.90
680;DHT22;322;48.846;9.230;2022-08-19T12:43:13;24.80;99.90
680;DHT22;322;48.846;9.230;2022-08-19T12:45:41;25.00;99.90
680;DHT22;322;48.846;9.230;2022-08-19T12:48:11;25.10;99.90
680;DHT22;322;48.846;9.230;2022-08-19T12:50:39;25.10;99.90
680;DHT22;322;48.846;9.230;2022-08-19T12:53:06;25.10;99.90
680;DHT22;322;48.846;9.230;2022-08-19T12:55:33;25.10;99.90
680;DHT22;322;48.846;9.230;2022-08-19T12:58:00;25.00;99.90
680;DHT22;322;48.846;9.230;2022-08-19T13:00:28;24.80;99.90
680;DHT22;322;48.846;9.230;2022-08-19T13:02:58;24.70;99.90
680;DHT22;322;48.846;9.230;2022-08-19T13:05:28;24.60;99.90
680;DHT22;322;48.846;9.230;2022-08-19T13:07:57;24.40;99.90
680;DHT22;322;48.846;9.230;2022-08-19T13:10:28;24.30;99.90
680;DHT22;322;48.846;9.230;2022-08-19T13:12:57;24.20;99.90
680;DHT22;322;48.846;9.230;2022-08-19T13:15:25;24.10;99.90
680;DHT22;322;48.846;9.230;2022-08-19T13:17:54;24.00;99.90
680;DHT22;322;48.846;9.230;2022-08-19T13:20:22;23.90;99.90
680;DHT22;322;48.846;9.230;2022-08-19T13:22:51;23.70;99.90
680;DHT22;322;48.846;9.230;2022-08-19T13:25:18;23.60;99.90
680;DHT22;322;48.846;9.230;2022-08-19T13:27:45;23.50;99.90
680;DHT22;322;48.846;9.230;2022-08-19T13:30:14;23.40;99.90
680;DHT22;322;48.846;9.230;2022-08-19T13:32:59;23.30;99.90
680;DHT22;322;48.846;9.230;2022-08-19T13:35:42;23.20;99.90
680;DHT22;322;48.846;9.230;2022-08-19T13:38:11;23.10;99.90
680;DHT22;322;48.846;9.230;2022-08-19T13:40:39;23.00;99.90
680;DHT22;322;48.846;9.230;2022-08-19T13:43:06;22.90;99.90
680;DHT22;322;48.846;9.230;2022-08-19T13:45:34;22.80;99.90
680;DHT22;322;48.846;9.230;2022-08-19T13:48:03;22.80;99.90
680;DHT22;322;48.846;9.230;2022-08-19T13:50:32;22.70;99.90
680;DHT22;322;48.846;9.230;2022-08-19T13:53:00;22.70;99.90
680;DHT22;322;48.846;9.230;2022-08-19T13:55:28;22.50;99.90
680;DHT22;322;48.846;9.230;2022-08-19T13:57:57;22.10;99.90
680;DHT22;322;48.846;9.230;2022-08-19T14:00:25;21.70;99.90
680;DHT22;322;48.846;9.230;2022-08-19T14:02:54;21.30;99.90
680;DHT22;322;48.846;9.230;2022-08-19T14:05:22;20.90;99.90
680;DHT22;322;48.846;9.230;2022-08-19T14:07:50;20.50;99.90
680;DHT22;322;48.846;9.230;2022-08-19T14:10:17;20.40;99.90
680;DHT22;322;48.846;9.230;2022-08-19T14:12:46;20.30;99.90
680;DHT22;322;48.846;9.230;2022-08-19T14:15:14;20.20;99.90
680;DHT22;322;48.846;9.230;2022-08-19T14:17:43;20.20;99.90
680;DHT22;322;48.846;9.230;2022-08-19T14:20:12;20.20;99.90
680;DHT22;322;48.846;9.230;2022-08-19T14:22:42;20.10;99.90
680;DHT22;322;48.846;9.230;2022-08-19T14:25:11;20.10;99.90
680;DHT22;322;48.846;9.230;2022-08-19T14:27:40;20.20;99.90
680;DHT22;322;48.846;9.230;2022-08-19T14:30:11;20.30;99.90
680;DHT22;322;48.846;9.230;2022-08-19T14:32:39;20.40;99.90
680;DHT22;322;48.846;9.230;2022-08-19T14:35:09;20.40;99.90
680;DHT22;322;48.846;9.230;2022-08-19T14:37:38;20.50;99.90
680;DHT22;322;48.846;9.230;2022-08-19T14:40:06;20.50;99.90
680;DHT22;322;48.846;9.230;2022-08-19T14:42:34;20.50;99.90
680;DHT22;322;48.846;9.230;2022-08-19T14:45:01;20.50;99.90
680;DHT22;322;48.846;9.230;2022-08-19T14:47:29;20.50;99.90
680;DHT22;322;48.846;9.230;2022-08-19T14:49:56;20.50;99.90
680;DHT22;322;48.846;9.230;2022-08-19T14:52:22;20.60;99.90
680;DHT22;322;48.846;9.230;2022-08-19T14:54:50;20.60;99.90
680;DHT22;322;48.846;9.230;2022-08-19T14:57:17;20.60;99.90
680;DHT22;322;48.846;9.230;2022-08-19T14:59:44;20.70;99.90
680;DHT22;322;48.846;9.230;2022-08-19T15:02:11;20.90;99.90
680;DHT22;322;48.846;9.230;2022-08-19T15:04:40;21.00;99.90
680;DHT22;322;48.846;9.230;2022-08-19T15:07:07;21.30;99.90
680;DHT22;322;48.846;9.230;2022-08-19T15:09:34;21.50;99.90
680;DHT22;322;48.846;9.230;2022-08-19T15:12:01;21.90;99.90
680;DHT22;322;48.846;9.230;2022-08-19T15:14:30;22.40;99.90
680;DHT22;322;48.846;9.230;2022-08-19T15:17:01;22.60;99.90
680;DHT22;322;48.846;9.230;2022-08-19T15:19:28;22.80;99.90
680;DHT22;322;48.846;9.230;2022-08-19T15:21:56;22.80;99.90
680;DHT22;322;48.846;9.230;2022-08-19T15:24:24;22.80;99.90
680;DHT22;322;48.846;9.230;2022-08-19T15:26:51;22.70;99.90
680;DHT22;322;48.846;9.230;2022-08-19T15:29:18;22.70;99.90
680;DHT22;322;48.846;9.230;2022-08-19T15:31:45;22.70;99.90
680;DHT22;322;48.846;9.230;2022-08-19T15:34:12;22.60;99.90
680;DHT22;322;48.846;9.230;2022-08-19T15:36:39;22.60;99.90
680;DHT22;322;48.846;9.230;2022-08-19T15:39:07;22.60;99.90
680;DHT22;322;48.846;9.230;2022-08-19T15:41:35;22.60;99.90
680;DHT22;322;48.846;9.230;2022-08-19T15:44:05;22.80;99.90
680;DHT22;322;48.846;9.230;2022-08-19T15:46:36;23.00;99.90
680;DHT22;322;48.846;9.230;2022-08-19T15:49:04;23.20;99.90
680;DHT22;322;48.846;9.230;2022-08-19T15:51:32;23.50;99.90
680;DHT22;322;48.846;9.230;2022-08-19T15:54:01;23.70;99.90
680;DHT22;322;48.846;9.230;2022-08-19T15:56:29;24.00;99.90
680;DHT22;322;48.846;9.230;2022-08-19T15:59:23;24.20;99.90
680;DHT22;322;48.846;9.230;2022-08-19T16:02:08;24.50;99.90
680;DHT22;322;48.846;9.230;2022-08-19T16:04:52;25.00;99.90
680;DHT22;322;48.846;9.230;2022-08-19T16:07:37;25.30;99.90
680;DHT22;322;48.846;9.230;2022-08-19T16:10:05;25.60;99.90
680;DHT22;322;48.846;9.230;2022-08-19T16:12:32;25.60;99.90
680;DHT22;322;48.846;9.230;2022-08-19T16:15:00;25.60;99.90
680;DHT22;322;48.846;9.230;2022-08-19T16:17:27;25.70;99.90
680;DHT22;322;48.846;9.230;2022-08-19T16:19:54;26.00;99.90
680;DHT22;322;48.846;9.230;2022-08-19T16:22:27;26.30;99.90
680;DHT22;322;48.846;9.230;2022-08-19T16:24:54;26.30;99.90
680;DHT22;322;48.846;9.230;2022-08-19T16:27:21;26.20;99.90
680;DHT22;322;48.846;9.230;2022-08-19T16:29:48;26.20;99.90
680;DHT22;322;48.846;9.230;2022-08-19T16:32:16;26.10;99.90
680;DHT22;322;48.846;9.230;2022-08-19T16:34:44;26.10;99.90
680;DHT22;322;48.846;9.230;2022-08-19T16:37:11;26.00;99.90
680;DHT22;322;48.846;9.230;2022-08-19T16:39:39;25.90;99.90
680;DHT22;322;48.846;9.230;2022-08-19T16:42:06;25.60;99.90
680;DHT22;322;48.846;9.230;2022-08-19T16:44:34;25.40;99.90
680;DHT22;322;48.846;9.230;2022-08-19T16:47:01;25.30;99.90